createdAt,value
2018-02-20T00:02:15.654Z,51.05
2018-02-20T00:04:43.725Z,47.62
2018-02-20T00:07:11.159Z,49.28
2018-02-20T00:09:38.635Z,50.90
2018-02-20T00:12:06.097Z,50.05
2018-02-20T00:14:33.558Z,55.45
2018-02-20T00:17:01.027Z,49.80
2018-02-20T00:19:28.469Z,54.47
2018-02-20T00:21:55.901Z,50.33
2018-02-20T00:24:23.354Z,62.10
2018-02-20T00:26:50.815Z,69.68
2018-02-20T00:29:18.279Z,60.17
2018-02-20T00:31:45.718Z,53.78
2018-02-20T00:34:13.184Z,54.78
2018-02-20T00:36:40.637Z,52.28
2018-02-20T00:39:08.112Z,65.70
2018-02-20T00:41:35.565Z,49.85
2018-02-20T00:44:03.001Z,55.42
2018-02-20T00:46:30.469Z,52.58
2018-02-20T00:48:57.914Z,54.70
2018-02-20T00:51:25.382Z,56.37
2018-02-20T00:53:52.816Z,51.75
2018-02-20T00:56:20.261Z,52.13
2018-02-20T00:58:47.730Z,61.53
2018-02-20T01:01:15.187Z,56.95
2018-02-20T01:03:42.632Z,62.20
2018-02-20T01:06:10.095Z,47.35
2018-02-20T01:08:37.538Z,53.90
2018-02-20T01:11:05.002Z,59.88
2018-02-20T01:13:32.451Z,56.28
2018-02-20T01:15:59.900Z,62.03
2018-02-20T01:18:27.362Z,58.60
2018-02-20T01:20:54.814Z,66.00
2018-02-20T01:23:22.259Z,58.45
2018-02-20T01:25:49.707Z,53.58
2018-02-20T01:28:17.194Z,55.55
2018-02-20T01:30:44.639Z,59.85
2018-02-20T01:33:12.091Z,60.17
2018-02-20T01:35:39.556Z,50.92
2018-02-20T01:38:07.031Z,51.37
2018-02-20T01:40:34.494Z,56.80
2018-02-20T01:43:01.930Z,59.00
2018-02-20T01:45:29.369Z,57.92
2018-02-20T01:47:56.833Z,52.00
2018-02-20T01:50:24.285Z,52.00
2018-02-20T01:52:51.776Z,53.40
2018-02-20T01:55:19.219Z,56.88
2018-02-20T01:57:46.743Z,58.50
2018-02-20T02:00:14.221Z,57.05
2018-02-20T02:02:41.668Z,56.90
2018-02-20T02:05:09.334Z,52.53
2018-02-20T02:07:37.199Z,55.40
2018-02-20T02:10:04.697Z,57.22
2018-02-20T02:12:32.170Z,57.78
2018-02-20T02:14:59.631Z,57.17
2018-02-20T02:17:27.078Z,52.35
2018-02-20T02:19:54.534Z,54.72
2018-02-20T02:22:21.976Z,64.75
2018-02-20T02:24:49.426Z,61.72
2018-02-20T02:27:16.896Z,57.75
2018-02-20T02:29:44.378Z,65.37
2018-02-20T02:32:11.819Z,54.50
2018-02-20T02:34:39.299Z,57.38
2018-02-20T02:37:06.762Z,60.00
2018-02-20T02:39:34.206Z,58.87
2018-02-20T02:42:01.673Z,61.72
2018-02-20T02:44:29.127Z,57.83
2018-02-20T02:46:56.592Z,61.10
2018-02-20T02:49:24.044Z,66.53
2018-02-20T02:51:51.487Z,58.17
2018-02-20T02:54:18.956Z,53.47
2018-02-20T02:56:46.418Z,62.62
2018-02-20T02:59:13.903Z,56.42
2018-02-20T03:01:41.420Z,62.40
2018-02-20T03:04:08.832Z,60.08
2018-02-20T03:06:36.312Z,55.55
2018-02-20T03:09:03.768Z,59.03
2018-02-20T03:11:31.220Z,60.08
2018-02-20T03:13:58.714Z,64.45
2018-02-20T03:16:26.160Z,56.50
2018-02-20T03:18:53.617Z,55.40
2018-02-20T03:21:21.072Z,58.20
2018-02-20T03:23:48.523Z,59.28
2018-02-20T03:26:15.990Z,55.22
2018-02-20T03:28:43.443Z,55.92
2018-02-20T03:31:10.941Z,52.38
2018-02-20T03:33:38.398Z,64.93
2018-02-20T03:36:05.912Z,50.85
2018-02-20T03:38:33.386Z,58.20
2018-02-20T03:41:00.830Z,54.40
2018-02-20T03:43:28.287Z,56.40
2018-02-20T03:45:55.742Z,55.97
2018-02-20T03:48:23.210Z,56.58
2018-02-20T03:50:50.668Z,55.17
2018-02-20T03:53:18.128Z,57.03
2018-02-20T03:55:45.593Z,58.65
2018-02-20T03:58:13.054Z,56.75
2018-02-20T04:00:40.502Z,59.83
2018-02-20T04:03:07.975Z,53.05
2018-02-20T04:05:35.418Z,55.15
2018-02-20T04:08:02.883Z,52.62
2018-02-20T04:10:30.343Z,62.65
2018-02-20T04:12:57.782Z,64.15
2018-02-20T04:15:25.234Z,53.50
2018-02-20T04:17:52.683Z,56.22
2018-02-20T04:20:20.155Z,53.35
2018-02-20T04:22:47.613Z,59.03
2018-02-20T04:25:15.060Z,52.15
2018-02-20T04:27:42.516Z,59.53
2018-02-20T04:30:09.970Z,53.80
2018-02-20T04:32:37.422Z,58.20
2018-02-20T04:35:04.872Z,53.92
2018-02-20T04:37:32.326Z,52.70
2018-02-20T04:39:59.814Z,56.33
2018-02-20T04:42:27.274Z,54.13
2018-02-20T04:44:54.723Z,51.42
2018-02-20T04:47:22.226Z,60.20
2018-02-20T04:49:50.548Z,56.20
2018-02-20T04:52:18.008Z,60.20
2018-02-20T04:54:45.472Z,54.88
2018-02-20T04:57:12.947Z,52.05
2018-02-20T04:59:40.386Z,53.03
2018-02-20T05:02:08.540Z,59.22
2018-02-20T05:04:36.026Z,58.92
2018-02-20T05:07:03.491Z,57.22
2018-02-20T05:09:30.990Z,59.88
2018-02-20T05:11:58.451Z,58.28
2018-02-20T05:14:25.898Z,53.47
2018-02-20T05:16:53.342Z,60.42
2018-02-20T05:19:20.783Z,58.25
2018-02-20T05:21:48.316Z,61.10
2018-02-20T05:24:15.758Z,58.60
2018-02-20T05:26:43.198Z,52.92
2018-02-20T05:29:10.641Z,57.97
2018-02-20T05:31:38.124Z,51.45
2018-02-20T05:34:05.582Z,51.85
2018-02-20T05:36:33.034Z,53.40
2018-02-20T05:39:00.490Z,52.25
2018-02-20T05:41:27.931Z,63.45
2018-02-20T05:43:55.397Z,51.22
2018-02-20T05:46:22.842Z,61.70
2018-02-20T05:48:50.279Z,52.38
2018-02-20T05:51:17.743Z,56.37
2018-02-20T05:53:45.210Z,54.08
2018-02-20T05:56:12.688Z,62.58
2018-02-20T05:58:40.145Z,55.12
2018-02-20T06:01:07.591Z,55.40
2018-02-20T06:03:35.031Z,48.72
2018-02-20T06:06:02.515Z,57.45
2018-02-20T06:08:29.982Z,57.50
2018-02-20T06:10:57.445Z,52.38
2018-02-20T06:13:24.906Z,53.92
2018-02-20T06:15:52.354Z,55.12
2018-02-20T06:18:20.319Z,57.33
2018-02-20T06:20:47.785Z,58.20
2018-02-20T06:23:15.228Z,57.13
2018-02-20T06:25:42.698Z,57.15
2018-02-20T06:28:10.153Z,58.58
2018-02-20T06:30:37.619Z,63.33
2018-02-20T06:33:05.074Z,69.00
2018-02-20T06:35:32.527Z,60.85
2018-02-20T06:38:00.006Z,55.97
2018-02-20T06:40:27.442Z,63.33
2018-02-20T06:42:54.885Z,60.67
2018-02-20T06:45:22.399Z,67.35
2018-02-20T06:47:49.850Z,72.82
2018-02-20T06:50:17.346Z,65.32
2018-02-20T06:52:45.686Z,73.60
2018-02-20T06:55:13.166Z,63.33
2018-02-20T06:57:40.634Z,69.53
2018-02-20T07:00:08.128Z,65.07
2018-02-20T07:02:35.574Z,55.58
2018-02-20T07:05:03.017Z,59.95
2018-02-20T07:07:30.504Z,58.87
2018-02-20T07:09:57.943Z,66.97
2018-02-20T07:12:25.394Z,56.28
2018-02-20T07:14:52.847Z,59.63
2018-02-20T07:17:20.299Z,63.38
2018-02-20T07:19:47.773Z,55.38
2018-02-20T07:22:15.231Z,61.55
2018-02-20T07:24:42.673Z,52.95
2018-02-20T07:27:10.150Z,56.58
2018-02-20T07:29:37.590Z,58.67
2018-02-20T07:32:05.035Z,60.60
2018-02-20T07:34:32.493Z,61.47
2018-02-20T07:36:59.926Z,53.25
2018-02-20T07:39:27.419Z,51.83
2018-02-20T07:41:54.866Z,52.72
2018-02-20T07:44:22.328Z,47.80
2018-02-20T07:46:49.782Z,56.53
2018-02-20T07:49:17.256Z,50.12
2018-02-20T07:51:44.730Z,54.60
2018-02-20T07:54:12.173Z,62.33
2018-02-20T07:56:39.610Z,56.53
2018-02-20T07:59:07.063Z,56.03
2018-02-20T08:01:34.496Z,59.22
2018-02-20T08:04:01.938Z,56.63
2018-02-20T08:06:29.374Z,68.10
2018-02-20T08:08:56.822Z,55.38
2018-02-20T08:11:24.855Z,56.85
2018-02-20T08:13:53.355Z,51.17
2018-02-20T08:16:20.883Z,59.42
2018-02-20T08:18:48.331Z,55.30
2018-02-20T08:21:15.805Z,54.60
2018-02-20T08:23:43.286Z,55.42
2018-02-20T08:26:10.723Z,56.45
2018-02-20T08:28:38.206Z,54.05
2018-02-20T08:31:05.675Z,58.55
2018-02-20T08:33:33.134Z,58.78
2018-02-20T08:36:00.647Z,53.28
2018-02-20T08:38:28.237Z,55.08
2018-02-20T08:40:55.701Z,55.65
2018-02-20T08:43:23.246Z,56.35
2018-02-20T08:45:50.706Z,51.78
2018-02-20T08:48:18.195Z,50.83
2018-02-20T08:50:45.706Z,46.25
2018-02-20T08:53:13.678Z,47.83
2018-02-20T08:55:41.151Z,50.25
2018-02-20T08:58:08.653Z,46.45
2018-02-20T09:00:36.109Z,54.80
2018-02-20T09:03:03.557Z,54.97
2018-02-20T09:05:31.068Z,53.53
2018-02-20T09:07:58.551Z,51.83
2018-02-20T09:10:26.019Z,52.67
2018-02-20T09:12:53.477Z,47.92
2018-02-20T09:15:21.573Z,53.87
2018-02-20T09:17:49.041Z,58.67
2018-02-20T09:20:16.586Z,55.05
2018-02-20T09:22:44.036Z,54.83
2018-02-20T09:25:11.516Z,55.20
2018-02-20T09:27:39.101Z,48.83
2018-02-20T09:30:06.561Z,53.87
2018-02-20T09:32:34.013Z,48.42
2018-02-20T09:35:01.474Z,54.28
2018-02-20T09:37:28.936Z,47.95
2018-02-20T09:39:56.459Z,52.72
2018-02-20T09:42:23.955Z,67.75
2018-02-20T09:44:51.413Z,81.87
2018-02-20T09:47:18.874Z,113.88
2018-02-20T09:49:46.348Z,70.62
2018-02-20T09:52:13.803Z,51.00
2018-02-20T09:54:41.259Z,114.65
2018-02-20T09:57:08.721Z,58.42
2018-02-20T09:59:36.200Z,46.47
2018-02-20T10:02:03.646Z,48.15
2018-02-20T10:04:31.223Z,47.38
2018-02-20T10:06:58.702Z,43.60
2018-02-20T10:09:26.157Z,47.62
2018-02-20T10:11:53.593Z,52.15
2018-02-20T10:14:21.119Z,50.35
2018-02-20T10:16:48.586Z,50.75
2018-02-20T10:19:16.064Z,44.90
2018-02-20T10:21:43.587Z,51.00
2018-02-20T10:24:11.094Z,45.78
2018-02-20T10:26:38.910Z,42.75
2018-02-20T10:29:06.555Z,50.88
2018-02-20T10:31:34.074Z,46.22
2018-02-20T10:34:05.965Z,49.10
2018-02-20T10:36:33.662Z,49.20
2018-02-20T10:39:01.170Z,57.95
2018-02-20T10:41:28.625Z,48.65
2018-02-20T10:43:56.110Z,44.35
2018-02-20T10:46:23.559Z,44.17
2018-02-20T10:48:51.046Z,46.50
2018-02-20T10:51:18.502Z,52.67
2018-02-20T10:53:45.948Z,41.85
2018-02-20T10:56:13.890Z,48.97
2018-02-20T10:58:41.370Z,42.42
2018-02-20T11:01:08.910Z,48.20
2018-02-20T11:03:36.385Z,44.97
2018-02-20T11:06:03.928Z,42.92
2018-02-20T11:08:31.447Z,44.70
2018-02-20T11:10:58.890Z,55.97
2018-02-20T11:13:26.379Z,50.65
2018-02-20T11:15:53.967Z,45.40
2018-02-20T11:18:21.435Z,49.03
2018-02-20T11:20:49.280Z,43.20
2018-02-20T11:23:16.759Z,45.72
2018-02-20T11:25:44.260Z,50.17
2018-02-20T11:28:12.206Z,45.08
2018-02-20T11:30:39.666Z,41.80
2018-02-20T11:33:07.206Z,42.33
2018-02-20T11:35:34.661Z,42.95
2018-02-20T11:38:02.155Z,56.58
2018-02-20T11:40:29.613Z,56.60
2018-02-20T11:43:11.754Z,56.72
2018-02-20T11:45:39.249Z,59.70
2018-02-20T11:48:06.716Z,51.47
2018-02-20T11:50:34.218Z,59.42
2018-02-20T11:53:01.689Z,51.53
2018-02-20T11:55:29.143Z,51.80
2018-02-20T11:57:56.803Z,45.58
2018-02-20T12:00:24.472Z,54.85
2018-02-20T12:02:51.930Z,51.28
2018-02-20T12:05:19.391Z,54.88
2018-02-20T12:07:47.047Z,51.15
2018-02-20T12:10:15.082Z,58.78
2018-02-20T12:12:42.538Z,45.53
2018-02-20T12:15:09.993Z,50.67
2018-02-20T12:17:37.461Z,46.00
2018-02-20T12:20:04.961Z,51.78
2018-02-20T12:22:32.435Z,51.47
2018-02-20T12:25:00.716Z,57.05
2018-02-20T12:27:28.421Z,57.55
2018-02-20T12:29:55.866Z,56.13
2018-02-20T12:32:23.331Z,54.63
2018-02-20T12:34:50.873Z,54.05
2018-02-20T12:37:18.341Z,59.40
2018-02-20T12:39:45.802Z,58.38
2018-02-20T12:42:13.253Z,62.90
2018-02-20T12:44:40.691Z,56.08
2018-02-20T12:47:08.150Z,53.92
2018-02-20T12:49:35.634Z,69.75
2018-02-20T12:52:03.141Z,50.92
2018-02-20T12:54:30.585Z,57.17
2018-02-20T12:56:58.026Z,84.40
2018-02-20T12:59:25.546Z,62.05
2018-02-20T13:01:53.065Z,60.53
2018-02-20T13:04:20.540Z,69.32
2018-02-20T13:06:48.007Z,54.70
2018-02-20T13:09:15.469Z,58.38
2018-02-20T13:11:48.563Z,59.92
2018-02-20T13:14:16.046Z,60.03
2018-02-20T13:16:43.490Z,60.92
2018-02-20T13:19:10.958Z,60.90
2018-02-20T13:21:38.477Z,61.92
2018-02-20T13:24:05.952Z,60.90
2018-02-20T13:26:33.472Z,60.38
2018-02-20T13:29:00.901Z,62.22
2018-02-20T13:31:28.406Z,68.53
2018-02-20T13:33:55.898Z,56.03
2018-02-20T13:36:23.381Z,58.78
2018-02-20T13:38:51.846Z,58.65
2018-02-20T13:41:19.555Z,60.97
2018-02-20T13:43:49.524Z,61.55
2018-02-20T13:46:18.687Z,65.47
2018-02-20T13:48:46.217Z,60.08
2018-02-20T13:51:13.672Z,66.93
2018-02-20T13:53:41.145Z,55.42
2018-02-20T13:56:08.577Z,63.83
2018-02-20T13:58:36.063Z,63.58
2018-02-20T14:01:03.524Z,72.03
2018-02-20T14:03:30.972Z,58.50
2018-02-20T14:05:58.433Z,70.53
2018-02-20T14:08:26.087Z,64.35
2018-02-20T14:10:53.568Z,66.05
2018-02-20T14:13:21.028Z,63.03
2018-02-20T14:15:48.691Z,59.28
2018-02-20T14:18:16.166Z,88.90
2018-02-20T14:20:43.778Z,65.50
2018-02-20T14:23:11.320Z,64.30
2018-02-20T14:25:38.818Z,59.63
2018-02-20T14:28:06.377Z,58.63
2018-02-20T14:30:33.898Z,55.70
2018-02-20T14:33:01.462Z,59.45
2018-02-20T14:35:28.900Z,84.85
2018-02-20T14:37:56.366Z,61.90
2018-02-20T14:40:23.884Z,52.97
2018-02-20T14:42:51.359Z,53.25
2018-02-20T14:45:18.826Z,61.40
2018-02-20T14:47:46.292Z,48.97
2018-02-20T14:50:13.774Z,52.60
2018-02-20T14:52:41.206Z,56.80
2018-02-20T14:55:08.662Z,53.58
2018-02-20T14:57:36.113Z,54.25
2018-02-20T15:00:03.641Z,50.97
2018-02-20T15:02:44.728Z,53.25
2018-02-20T15:05:12.247Z,59.08
2018-02-20T15:07:39.934Z,65.78
2018-02-20T15:10:14.538Z,56.70
2018-02-20T15:12:42.482Z,55.78
2018-02-20T15:15:09.977Z,64.05
2018-02-20T15:17:37.468Z,59.53
2018-02-20T15:20:04.961Z,64.43
2018-02-20T15:22:32.408Z,60.88
2018-02-20T15:24:59.854Z,60.50
2018-02-20T15:27:27.348Z,69.30
2018-02-20T15:29:54.798Z,56.60
2018-02-20T15:32:22.258Z,55.70
2018-02-20T15:34:49.786Z,62.05
2018-02-20T15:37:17.272Z,58.17
2018-02-20T15:39:46.291Z,57.08
2018-02-20T15:42:14.431Z,56.80
2018-02-20T15:44:42.333Z,58.20
2018-02-20T15:47:09.863Z,58.33
2018-02-20T15:49:37.321Z,66.85
2018-02-20T15:52:05.080Z,68.28
2018-02-20T15:54:32.900Z,66.90
2018-02-20T15:57:00.354Z,64.32
2018-02-20T15:59:28.795Z,58.60
2018-02-20T16:01:56.286Z,66.95
2018-02-20T16:04:25.046Z,73.15
2018-02-20T16:06:52.537Z,70.15
2018-02-20T16:09:20.009Z,66.40
2018-02-20T16:11:47.455Z,75.03
2018-02-20T16:14:14.915Z,60.88
2018-02-20T16:16:42.479Z,68.50
2018-02-20T16:19:10.919Z,60.35
2018-02-20T16:21:39.011Z,64.12
2018-02-20T16:24:06.888Z,69.47
2018-02-20T16:26:34.346Z,61.67
2018-02-20T16:29:01.793Z,69.93
2018-02-20T16:31:31.948Z,78.18
2018-02-20T16:33:59.454Z,74.80
2018-02-20T16:36:27.834Z,67.07
2018-02-20T16:39:02.214Z,66.22
2018-02-20T16:41:29.891Z,63.40
2018-02-20T16:43:57.494Z,70.47
2018-02-20T16:46:25.057Z,57.58
2018-02-20T16:48:52.586Z,61.20
2018-02-20T16:51:20.337Z,62.65
2018-02-20T16:53:48.076Z,69.00
2018-02-20T16:56:15.970Z,61.03
2018-02-20T16:58:43.494Z,66.28
2018-02-20T17:01:11.302Z,64.80
2018-02-20T17:03:39.850Z,63.47
2018-02-20T17:06:07.309Z,61.67
2018-02-20T17:08:36.233Z,60.53
2018-02-20T17:11:03.746Z,69.07
2018-02-20T17:13:31.222Z,63.75
2018-02-20T17:15:58.759Z,61.92
2018-02-20T17:18:26.247Z,64.45
2018-02-20T17:20:53.740Z,65.40
2018-02-20T17:23:21.201Z,63.53
2018-02-20T17:25:48.671Z,60.90
2018-02-20T17:28:16.133Z,54.75
2018-02-20T17:30:43.613Z,69.87
2018-02-20T17:33:11.070Z,58.83
2018-02-20T17:35:38.527Z,66.12
2018-02-20T17:38:05.961Z,59.47
2018-02-20T17:40:33.452Z,66.97
2018-02-20T17:43:01.079Z,69.57
2018-02-20T17:45:29.559Z,71.43
2018-02-20T17:47:57.009Z,70.60
2018-02-20T17:50:24.464Z,69.15
2018-02-20T17:52:51.950Z,71.47
2018-02-20T17:55:19.434Z,70.43
2018-02-20T17:57:46.928Z,67.18
2018-02-20T18:00:14.374Z,60.50
2018-02-20T18:02:41.826Z,68.47
2018-02-20T18:05:09.379Z,76.62
2018-02-20T18:07:36.895Z,78.85
2018-02-20T18:10:04.374Z,70.25
2018-02-20T18:12:31.822Z,72.32
2018-02-20T18:14:59.263Z,65.78
2018-02-20T18:17:26.717Z,66.10
2018-02-20T18:19:54.192Z,69.37
2018-02-20T18:22:21.677Z,69.75
2018-02-20T18:24:49.122Z,72.90
2018-02-20T18:27:16.612Z,70.53
2018-02-20T18:29:44.099Z,72.95
2018-02-20T18:32:11.632Z,71.07
2018-02-20T18:34:39.080Z,118.50
2018-02-20T18:37:06.617Z,93.78
2018-02-20T18:39:34.683Z,73.15
2018-02-20T18:42:02.123Z,59.33
2018-02-20T18:44:29.583Z,76.80
2018-02-20T18:46:57.228Z,80.40
2018-02-20T18:49:24.737Z,126.57
2018-02-20T18:51:52.265Z,100.50
2018-02-20T18:54:19.740Z,96.93
2018-02-20T18:56:47.215Z,76.82
2018-02-20T18:59:15.722Z,71.12
2018-02-20T19:01:43.187Z,70.93
2018-02-20T19:04:10.663Z,71.28
2018-02-20T19:06:38.119Z,62.75
2018-02-20T19:09:05.642Z,66.37
2018-02-20T19:11:34.086Z,64.37
2018-02-20T19:14:02.539Z,69.80
2018-02-20T19:16:30.144Z,74.37
2018-02-20T19:18:57.707Z,69.40
2018-02-20T19:21:25.828Z,81.93
2018-02-20T19:23:53.484Z,68.22
2018-02-20T19:26:20.998Z,83.18
2018-02-20T19:28:48.541Z,78.00
2018-02-20T19:31:15.957Z,66.50
2018-02-20T19:33:46.471Z,82.18
2018-02-20T19:36:19.303Z,77.43
2018-02-20T19:38:53.882Z,74.82
2018-02-20T19:41:22.849Z,85.70
2018-02-20T19:43:50.639Z,78.75
2018-02-20T19:46:18.265Z,87.95
2018-02-20T19:48:47.355Z,81.03
2018-02-20T19:51:15.698Z,96.75
2018-02-20T19:53:44.216Z,80.00
2018-02-20T19:56:15.478Z,91.20
2018-02-20T19:58:46.049Z,82.50
2018-02-20T20:01:17.489Z,75.05
2018-02-20T20:03:47.165Z,69.85
2018-02-20T20:06:18.882Z,77.75
2018-02-20T20:11:29.836Z,78.12
2018-02-20T20:13:57.649Z,68.93
2018-02-20T20:19:04.911Z,83.22
2018-02-20T20:21:36.470Z,76.97
2018-02-20T20:24:05.506Z,96.70
2018-02-20T20:26:33.770Z,67.82
2018-02-20T20:31:59.310Z,78.82
2018-02-20T20:34:27.402Z,71.78
2018-02-20T20:37:00.011Z,72.85
2018-02-20T20:39:35.004Z,68.37
2018-02-20T20:42:08.980Z,77.97
2018-02-20T20:44:39.802Z,67.55
2018-02-20T20:47:09.361Z,74.57
2018-02-20T20:49:37.164Z,85.30
2018-02-20T20:52:05.758Z,69.87
2018-02-20T20:54:33.212Z,73.37
2018-02-20T20:57:00.703Z,73.05
2018-02-20T20:59:28.977Z,77.95
2018-02-20T21:02:00.230Z,85.62
2018-02-20T21:04:27.707Z,83.10
2018-02-20T21:06:55.789Z,71.15
2018-02-20T21:09:32.080Z,79.30
2018-02-20T21:12:01.298Z,76.12
2018-02-20T21:14:28.914Z,84.75
2018-02-20T21:17:00.052Z,83.10
2018-02-20T21:19:28.234Z,87.10
2018-02-20T21:21:59.771Z,92.50
2018-02-20T21:24:27.389Z,78.10
2018-02-20T21:26:55.192Z,97.65
2018-02-20T21:29:23.220Z,98.90
2018-02-20T21:31:55.253Z,77.53
2018-02-20T21:34:25.510Z,84.37
2018-02-20T21:36:53.693Z,75.55
2018-02-20T21:39:23.130Z,84.90
2018-02-20T21:41:52.897Z,85.75
2018-02-20T21:44:22.407Z,78.65
2018-02-20T21:46:49.954Z,69.50
2018-02-20T21:49:17.586Z,84.18
2018-02-20T21:51:50.352Z,81.25
2018-02-20T21:54:17.863Z,82.88
2018-02-20T21:56:45.325Z,87.45
2018-02-20T21:59:12.795Z,86.93
2018-02-20T22:01:40.292Z,73.20
2018-02-20T22:04:07.756Z,85.18
2018-02-20T22:06:35.258Z,95.95
2018-02-20T22:09:02.752Z,87.60
2018-02-20T22:11:30.965Z,81.37
2018-02-20T22:13:58.414Z,84.90
2018-02-20T22:16:25.867Z,92.25
2018-02-20T22:18:53.339Z,74.50
2018-02-20T22:21:20.844Z,90.90
2018-02-20T22:23:48.287Z,89.55
2018-02-20T22:26:15.743Z,82.12
2018-02-20T22:28:43.385Z,84.22
2018-02-20T22:31:11.065Z,73.87
2018-02-20T22:33:38.543Z,79.57
2018-02-20T22:36:05.997Z,77.10
2018-02-20T22:38:39.842Z,78.60
2018-02-20T22:41:07.295Z,74.15
2018-02-20T22:43:34.750Z,71.80
2018-02-20T22:46:02.207Z,79.93
2018-02-20T22:48:29.822Z,67.37
2018-02-20T22:50:57.278Z,80.18
2018-02-20T22:53:24.791Z,78.95
2018-02-20T22:55:52.291Z,74.93
2018-02-20T22:58:20.860Z,73.32
2018-02-20T23:00:49.427Z,71.87
2018-02-20T23:03:16.938Z,81.30
2018-02-20T23:05:44.404Z,83.37
2018-02-20T23:08:11.856Z,75.72
2018-02-20T23:10:40.296Z,82.47
2018-02-20T23:13:07.775Z,76.47
2018-02-20T23:15:35.227Z,72.45
2018-02-20T23:18:02.724Z,76.53
2018-02-20T23:20:30.246Z,80.18
2018-02-20T23:22:57.698Z,72.78
2018-02-20T23:25:25.154Z,80.78
2018-02-20T23:27:52.631Z,88.85
2018-02-20T23:30:20.084Z,84.43
2018-02-20T23:32:47.530Z,69.82
2018-02-20T23:35:14.987Z,68.80
2018-02-20T23:37:42.447Z,79.45
2018-02-20T23:40:09.986Z,77.68
2018-02-20T23:42:37.444Z,81.28
2018-02-20T23:45:04.914Z,77.72
2018-02-20T23:47:32.362Z,67.85
2018-02-20T23:49:59.806Z,72.37
2018-02-20T23:52:27.281Z,66.80
2018-02-20T23:54:54.727Z,69.37
2018-02-20T23:57:22.200Z,76.90
2018-02-20T23:59:49.673Z,79.82
